Time;durP1;ratioP1;P1;durP2;ratioP2;P2;SDS_P1;SDS_P2;PMS_P1;PMS_P2;Temp;Humidity;BMP_temperature;BMP_pressure;BME280_temperature;BME280_humidity;BME280_pressure;Samples;Min_cycle;Max_cycle;Signal;HPM_P1;HPM_P2
2022/10/18 00:00:05;;;;;;;26.25;16.30;;;;;;;29.15;70.52;100721.84;5059148;28;70221;-36
2022/10/18 00:02:38;;;;;;;23.45;14.93;;;;;;;29.71;71.21;100812.31;5055530;28;66683;-35
2022/10/18 00:05:09;;;;;;;28.20;16.52;;;;;;;29.72;71.61;100816.66;5056148;28;70246;-35
2022/10/18 00:07:39;;;;;;;17.38;15.50;;;;;;;29.76;71.66;100825.19;5055752;28;66257;-35
2022/10/18 00:10:11;;;;;;;17.35;15.68;;;;;;;29.79;70.91;100828.28;5054943;28;70302;-37
2022/10/18 00:12:41;;;;;;;29.80;15.98;;;;;;;29.72;71.97;100819.38;5056160;28;66285;-35
2022/10/18 00:15:12;;;;;;;21.55;16.58;;;;;;;29.71;71.88;100817.72;5070350;28;69856;-37
2022/10/18 00:17:43;;;;;;;;;;;;;;;29.63;73.93;100847.69;5054325;28;66540;-37
2022/10/18 00:20:14;;;;;;;22.15;16.52;;;;;;;29.61;71.50;100806.50;5058633;28;69846;-35
2022/10/18 00:22:45;;;;;;;18.73;15.57;;;;;;;29.97;70.17;100849.22;5061874;28;66269;-37
2022/10/18 00:25:16;;;;;;;23.02;16.85;;;;;;;29.95;71.75;100845.06;5069921;28;70097;-36
2022/10/18 00:27:46;;;;;;;21.95;16.23;;;;;;;29.93;72.64;100847.19;5056434;28;65358;-37
2022/10/18 00:30:17;;;;;;;17.65;15.80;;;;;;;30.02;72.64;100859.41;5064524;28;69777;-36
2022/10/18 00:32:47;;;;;;;16.75;15.13;;;;;;;30.06;72.13;100863.31;5066903;28;65503;-37
2022/10/18 00:35:18;;;;;;;16.05;14.55;;;;;;;30.02;71.25;100849.41;5065351;28;70068;-36
2022/10/18 00:37:48;;;;;;;16.70;14.10;;;;;;;30.10;71.66;100869.97;5060507;28;66747;-36
2022/10/18 00:40:19;;;;;;;28.35;15.07;;;;;;;30.10;68.76;100842.94;5060298;28;70256;-36
2022/10/18 00:42:49;;;;;;;15.23;13.73;;;;;;;30.17;67.87;100854.56;5051941;28;65630;-40
2022/10/18 00:46:28;;;;;;;14.32;12.73;;;;;;;30.28;67.52;100872.84;5019713;28;70065;-35
2022/10/18 00:49:03;;;;;;;16.55;13.80;;;;;;;29.41;67.03;100725.50;4979895;28;65522;-37
2022/10/18 00:51:52;;;;;;;16.60;14.90;;;;;;;29.84;66.62;100800.63;4998236;28;70614;-36
2022/10/18 00:54:23;;;;;;;17.45;14.13;;;;;;;30.41;66.86;100887.34;5032266;28;65845;-37
2022/10/18 00:56:55;;;;;;;17.35;13.85;;;;;;;30.44;67.09;100878.78;5059370;28;70226;-37
2022/10/18 00:59:26;;;;;;;18.33;15.82;;;;;;;30.48;66.54;100871.91;5058471;28;66092;-36
2022/10/18 01:01:57;;;;;;;21.77;17.70;;;;;;;30.47;66.67;100870.22;5060157;28;69226;-36
2022/10/18 01:04:28;;;;;;;32.03;25.98;;;;;;;30.52;66.66;100883.94;5060920;28;65954;-37
2022/10/18 01:07:33;;;;;;;43.45;35.67;;;;;;;29.91;66.52;100801.41;5056383;28;69471;-36
2022/10/18 01:10:17;;;;;;;47.63;39.25;;;;;;;30.06;66.22;100807.38;5058356;28;65760;-36
2022/10/18 01:13:10;;;;;;;51.05;42.50;;;;;;;30.12;66.43;100840.84;5060330;28;70207;-36
2022/10/18 01:16:16;;;;;;;51.03;43.60;;;;;;;30.48;66.77;100882.72;5052075;28;66479;-37
2022/10/18 01:18:57;;;;;;;61.50;47.05;;;;;;;30.63;66.33;100893.25;5049031;28;69557;-37
2022/10/18 01:22:01;;;;;;;59.78;48.00;;;;;;;30.52;66.88;100894.75;5061253;28;65994;-37
2022/10/18 01:24:35;;;;;;;64.15;49.88;;;;;;;30.65;66.88;100889.28;5059485;28;70010;-37
2022/10/18 01:27:14;;;;;;;60.42;49.15;;;;;;;30.66;66.52;100896.34;5059917;28;66510;-37
2022/10/18 01:30:21;;;;;;;58.45;48.05;;;;;;;30.58;66.77;100893.88;5061264;28;70140;-36
2022/10/18 01:32:57;;;;;;;56.92;46.50;;;;;;;30.70;66.76;100892.16;5060020;28;66320;-37
2022/10/18 01:35:34;;;;;;;59.05;45.85;;;;;;;30.56;66.59;100868.91;5061337;28;69986;-36
2022/10/18 01:38:11;;;;;;;59.90;42.30;;;;;;;30.72;66.05;100894.63;5050008;28;66204;-36
2022/10/18 01:40:45;;;;;;;55.90;39.70;;;;;;;30.28;66.53;100815.16;5061051;28;70127;-35
2022/10/18 01:43:18;;;;;;;56.97;42.65;;;;;;;30.79;66.18;100900.00;5060187;28;66365;-36
2022/10/18 01:45:49;;;;;;;53.08;40.80;;;;;;;30.77;66.51;100883.16;5058964;28;69956;-36
2022/10/18 01:48:20;;;;;;;54.22;40.05;;;;;;;30.79;66.35;100890.00;5061309;28;66078;-35
2022/10/18 01:50:53;;;;;;;49.75;40.42;;;;;;;30.40;66.15;100829.69;5058870;28;71407;-35
2022/10/18 01:53:31;;;;;;;51.58;39.92;;;;;;;30.58;66.12;100850.56;5052662;28;66658;-35
2022/10/18 01:56:20;;;;;;;47.97;39.00;;;;;;;30.85;66.55;100893.75;5063404;28;70695;-36
2022/10/18 01:59:13;;;;;;;50.22;37.38;;;;;;;30.72;66.89;100890.03;5059737;28;65759;-35
2022/10/18 02:01:53;;;;;;;50.55;37.10;;;;;;;30.78;65.97;100877.50;5060373;28;70176;-36
2022/10/18 02:04:41;;;;;;;39.75;34.13;;;;;;;30.69;66.32;100863.41;5053728;28;65926;-36
2022/10/18 02:07:36;;;;;;;43.08;33.17;;;;;;;30.85;66.54;100888.31;5057588;28;71159;-35
2022/10/18 02:10:21;;;;;;;46.15;33.50;;;;;;;30.44;65.76;100811.09;5053422;28;66962;-35
2022/10/18 02:12:55;;;;;;;42.45;33.38;;;;;;;30.09;65.72;100749.31;5056694;28;70768;-35
2022/10/18 02:15:48;;;;;;;35.75;31.20;;;;;;;30.41;66.03;100820.50;5055366;28;66300;-35
2022/10/18 02:18:24;;;;;;;36.20;32.15;;;;;;;30.99;65.83;100892.59;5053348;28;69793;-35
2022/10/18 02:20:58;;;;;;;35.03;30.77;;;;;;;30.62;65.08;100824.72;5057039;28;65596;-35
2022/10/18 02:23:29;;;;;;;32.08;28.55;;;;;;;31.03;64.99;100891.06;5056733;28;70701;-35
2022/10/18 02:26:00;;;;;;;;;;;;;;;30.67;67.09;100895.31;5054617;28;66110;-35
2022/10/18 02:28:31;;;;;;;29.88;26.80;;;;;;;31.02;65.36;100892.16;5058444;28;70701;-35
2022/10/18 02:31:16;;;;;;;32.10;27.75;;;;;;;31.09;65.23;100892.06;5038731;28;65581;-35
2022/10/18 02:33:57;;;;;;;30.52;27.23;;;;;;;30.49;65.17;100789.63;5057188;28;69565;-37
2022/10/18 02:36:42;;;;;;;29.45;26.25;;;;;;;30.76;65.24;100830.88;5056690;28;66724;-34
2022/10/18 02:39:34;;;;;;;28.30;25.27;;;;;;;31.05;65.00;100880.84;5055005;28;70562;-37
2022/10/18 02:42:05;;;;;;;;;;;;;;;30.81;65.83;100887.09;5058729;28;66124;-36
2022/10/18 02:44:37;;;;;;;25.42;22.90;;;;;;;31.20;65.05;100885.94;5060247;28;70258;-36
2022/10/18 02:47:09;;;;;;;28.52;25.50;;;;;;;30.61;64.42;100782.44;5055524;28;66783;-39
2022/10/18 02:49:40;;;;;;;25.83;23.38;;;;;;;31.24;64.18;100870.06;5057708;28;70097;-36
2022/10/18 02:52:11;;;;;;;27.50;23.80;;;;;;;31.26;64.46;100873.38;5059453;28;65174;-36
2022/10/18 02:54:41;;;;;;;25.58;22.88;;;;;;;31.30;64.39;100880.03;5060054;28;69994;-36
2022/10/18 02:57:12;;;;;;;24.73;22.27;;;;;;;31.32;64.36;100872.50;5057641;28;65509;-36
2022/10/18 02:59:42;;;;;;;29.73;22.85;;;;;;;31.30;63.96;100863.75;5058634;28;70136;-36
2022/10/18 03:02:13;;;;;;;25.98;22.88;;;;;;;31.36;63.80;100866.41;5057733;28;66321;-35
2022/10/18 03:04:43;;;;;;;24.77;22.02;;;;;;;31.39;63.82;100859.72;5058708;28;69315;-36
2022/10/18 03:07:13;;;;;;;26.40;23.63;;;;;;;31.28;63.83;100838.75;5059900;28;66014;-36
2022/10/18 03:10:38;;;;;;;25.48;22.52;;;;;;;31.29;63.96;100856.69;5059182;28;69635;-36
2022/10/18 03:13:09;;;;;;;24.35;21.85;;;;;;;31.41;63.82;100849.50;5044063;28;66148;-36
2022/10/18 03:15:39;;;;;;;23.23;20.67;;;;;;;31.44;63.61;100843.63;5058691;28;70182;-36
2022/10/18 03:18:10;;;;;;;22.63;20.23;;;;;;;31.36;63.53;100819.53;5059612;28;65715;-36
2022/10/18 03:20:41;;;;;;;22.40;20.23;;;;;;;31.47;63.42;100835.03;5058338;28;69482;-36
2022/10/18 03:23:11;;;;;;;22.83;20.40;;;;;;;31.52;63.30;100828.94;5057243;28;66716;-36
2022/10/18 03:25:42;;;;;;;23.60;19.05;;;;;;;31.56;62.97;100830.13;5059530;28;69021;-36
2022/10/18 03:28:14;;;;;;;22.10;19.90;;;;;;;31.56;62.93;100830.97;5057560;28;66061;-36
2022/10/18 03:30:45;;;;;;;21.35;19.33;;;;;;;31.59;62.65;100825.09;5058337;28;69198;-36
2022/10/18 03:33:15;;;;;;;20.23;18.55;;;;;;;31.58;63.16;100818.00;5047508;28;66174;-36
2022/10/18 03:35:46;;;;;;;23.42;18.70;;;;;;;31.64;62.88;100818.16;5059097;28;69508;-36
2022/10/18 03:38:17;;;;;;;22.38;18.90;;;;;;;31.64;62.65;100815.44;5061098;28;66365;-36
2022/10/18 03:40:48;;;;;;;19.13;17.33;;;;;;;31.65;62.71;100807.09;5061442;28;70194;-36
2022/10/18 03:43:18;;;;;;;21.17;19.13;;;;;;;31.66;62.59;100792.47;5062987;28;65284;-36
2022/10/18 03:45:48;;;;;;;19.88;18.02;;;;;;;31.71;62.35;100783.66;5062548;28;70062;-36
2022/10/18 03:48:19;;;;;;;19.45;17.88;;;;;;;31.67;62.25;100782.44;5060850;28;65707;-36
2022/10/18 03:50:49;;;;;;;19.83;17.67;;;;;;;31.73;62.14;100784.25;5060175;28;70004;-35
2022/10/18 03:53:20;;;;;;;18.08;16.65;;;;;;;31.72;62.17;100774.47;5058628;28;65307;-35
2022/10/18 03:55:54;;;;;;;20.95;17.50;;;;;;;31.76;62.11;100783.78;5057425;28;70052;-36
2022/10/18 03:58:24;;;;;;;19.90;17.98;;;;;;;31.76;62.01;100778.34;5059655;28;65237;-37
2022/10/18 04:00:55;;;;;;;19.92;17.88;;;;;;;31.76;62.37;100772.94;5057242;28;69678;-36
2022/10/18 04:03:26;;;;;;;18.88;17.20;;;;;;;31.77;61.92;100766.47;5058828;28;65877;-36
2022/10/18 04:05:58;;;;;;;19.50;17.55;;;;;;;31.79;62.15;100765.19;5058690;28;70195;-37
2022/10/18 04:08:35;;;;;;;19.45;17.48;;;;;;;31.80;61.84;100766.84;5061907;28;66746;-37
2022/10/18 04:11:10;;;;;;;19.65;17.75;;;;;;;31.83;61.74;100760.94;5060730;28;70571;-36
2022/10/18 04:13:41;;;;;;;21.90;17.88;;;;;;;31.85;61.95;100763.44;5049903;28;65497;-36
2022/10/18 04:16:11;;;;;;;18.90;16.67;;;;;;;31.86;62.18;100758.84;5059319;28;69026;-37
2022/10/18 04:18:42;;;;;;;21.45;16.63;;;;;;;31.86;61.66;100754.25;5062727;28;66618;-36
2022/10/18 04:21:13;;;;;;;19.45;17.65;;;;;;;31.86;61.78;100754.25;5059625;28;70642;-37
2022/10/18 04:23:43;;;;;;;18.60;16.73;;;;;;;31.88;61.72;100744.00;5048226;28;66281;-37
2022/10/18 04:26:15;;;;;;;18.58;16.73;;;;;;;31.84;61.66;100729.22;5057682;28;69509;-36
2022/10/18 04:28:46;;;;;;;19.35;17.55;;;;;;;31.91;61.97;100734.56;5059571;28;66167;-36
2022/10/18 04:31:17;;;;;;;19.15;17.17;;;;;;;31.91;61.79;100735.44;5057463;28;70057;-36
2022/10/18 04:33:47;;;;;;;19.40;17.15;;;;;;;31.94;61.25;100726.81;5051380;28;66133;-37
2022/10/18 04:36:18;;;;;;;18.33;16.70;;;;;;;31.93;61.58;100717.03;5059252;28;71800;-36
2022/10/18 04:38:48;;;;;;;21.08;16.52;;;;;;;31.96;61.57;100726.59;5057231;28;66090;-37
2022/10/18 04:41:19;;;;;;;18.35;16.70;;;;;;;31.97;61.11;100712.78;5059164;28;70109;-36
2022/10/18 04:43:50;;;;;;;19.58;17.48;;;;;;;31.97;61.44;100717.41;5053453;28;65152;-36
2022/10/18 04:46:21;;;;;;;19.17;16.63;;;;;;;31.99;61.31;100710.69;5058425;28;70170;-36
2022/10/18 04:48:51;;;;;;;18.42;16.40;;;;;;;31.97;61.68;100701.94;5057558;28;65082;-36
2022/10/18 04:51:22;;;;;;;20.25;16.60;;;;;;;31.86;61.21;100689.13;5060290;28;69605;-37
2022/10/18 04:53:52;;;;;;;19.63;17.40;;;;;;;31.98;61.35;100703.63;5054216;28;65540;-37
2022/10/18 04:56:23;;;;;;;20.30;16.92;;;;;;;31.91;60.97;100692.03;5057245;28;69998;-37
2022/10/18 04:58:53;;;;;;;18.25;16.33;;;;;;;31.98;61.32;100686.47;5059851;28;66454;-36
2022/10/18 05:01:24;;;;;;;18.70;16.88;;;;;;;32.03;60.74;100684.72;5060619;28;70181;-36
2022/10/18 05:03:55;;;;;;;17.63;15.88;;;;;;;32.06;60.88;100694.28;5055385;28;65548;-35
2022/10/18 05:06:26;;;;;;;22.83;16.83;;;;;;;32.08;61.01;100675.06;5058788;28;69235;-35
2022/10/18 05:08:56;;;;;;;17.67;16.05;;;;;;;32.10;60.76;100668.34;5058362;28;66158;-36
2022/10/18 05:11:26;;;;;;;18.02;15.77;;;;;;;32.13;60.71;100667.06;5054138;28;69478;-36
2022/10/18 05:13:57;;;;;;;19.08;15.30;;;;;;;32.17;61.06;100668.22;5048600;28;65561;-36
2022/10/18 05:16:27;;;;;;;17.35;15.10;;;;;;;32.19;60.54;100671.56;5049172;28;69977;-36
2022/10/18 05:18:58;;;;;;;18.25;15.45;;;;;;;32.21;60.82;100648.53;5056883;28;66436;-36
2022/10/18 05:21:28;;;;;;;16.92;15.38;;;;;;;32.24;60.95;100652.69;5047131;28;69461;-36
2022/10/18 05:23:59;;;;;;;15.70;14.35;;;;;;;32.26;60.62;100650.53;5059228;28;66029;-35
2022/10/18 05:26:29;;;;;;;17.02;15.48;;;;;;;32.26;60.44;100647.81;5061636;28;68886;-36
2022/10/18 05:29:00;;;;;;;18.77;14.23;;;;;;;32.29;60.45;100644.66;5058475;28;66325;-36
2022/10/18 05:31:31;;;;;;;16.90;15.10;;;;;;;32.23;60.28;100629.28;5056724;28;69415;-37
2022/10/18 05:34:01;;;;;;;16.42;14.63;;;;;;;32.34;60.23;100639.31;5058897;28;65513;-36
2022/10/18 05:36:32;;;;;;;15.83;14.50;;;;;;;32.32;60.37;100627.06;5056133;28;69260;-36
2022/10/18 05:39:04;;;;;;;16.95;14.93;;;;;;;32.37;60.09;100624.47;5060974;28;66580;-36
2022/10/18 05:41:35;;;;;;;16.17;14.73;;;;;;;32.36;60.11;100618.22;5061094;28;69832;-35
2022/10/18 05:44:06;;;;;;;14.60;13.45;;;;;;;32.38;60.60;100610.66;5060327;28;66759;-36
2022/10/18 05:46:36;;;;;;;16.27;14.43;;;;;;;32.39;60.19;100617.72;5053115;28;69895;-35
2022/10/18 05:49:06;;;;;;;15.40;13.82;;;;;;;32.30;60.11;100594.72;5060063;28;66047;-38
2022/10/18 05:51:37;;;;;;;15.32;13.73;;;;;;;32.33;59.69;100591.53;5061057;28;70276;-36
2022/10/18 05:54:13;;;;;;;15.33;13.63;;;;;;;31.93;60.04;100524.44;5049333;28;66120;-37
2022/10/18 05:56:43;;;;;;;15.70;13.57;;;;;;;32.43;59.99;100605.34;5058770;28;70652;-37
2022/10/18 05:59:14;;;;;;;14.40;13.20;;;;;;;32.40;60.02;100600.41;5058869;28;66259;-36
2022/10/18 06:01:44;;;;;;;13.95;12.88;;;;;;;32.45;60.13;100600.47;5057915;28;70191;-37
2022/10/18 06:04:16;;;;;;;14.30;13.02;;;;;;;32.36;59.89;100585.63;5055516;28;66051;-36
2022/10/18 06:06:47;;;;;;;15.05;13.68;;;;;;;32.44;60.03;100593.41;5055906;28;70263;-36
2022/10/18 06:09:18;;;;;;;15.32;13.77;;;;;;;32.46;59.72;100596.75;5053274;28;66529;-37
2022/10/18 06:11:49;;;;;;;13.38;12.38;;;;;;;32.45;59.92;100589.63;5052524;28;70273;-36
2022/10/18 06:14:19;;;;;;;15.50;13.88;;;;;;;32.42;59.80;100567.56;5052509;28;66411;-36
2022/10/18 06:16:50;;;;;;;14.05;12.75;;;;;;;32.51;59.87;100581.63;5056292;28;70152;-37
2022/10/18 06:19:20;;;;;;;15.55;13.50;;;;;;;32.52;59.87;100573.25;5040443;28;66580;-35
2022/10/18 06:21:51;;;;;;;15.35;13.35;;;;;;;32.49;59.75;100558.28;5055814;28;70237;-35
2022/10/18 06:24:26;;;;;;;13.95;12.68;;;;;;;32.55;59.41;100572.78;5050198;28;66467;-37
2022/10/18 06:26:57;;;;;;;13.77;12.70;;;;;;;32.56;59.83;100554.59;5058584;28;70244;-37
2022/10/18 06:29:27;;;;;;;13.48;12.20;;;;;;;32.60;59.35;100558.50;5057389;28;66087;-36
2022/10/18 06:31:58;;;;;;;13.60;12.23;;;;;;;32.57;59.54;100543.50;5058907;28;69410;-36
2022/10/18 06:34:29;;;;;;;14.13;12.85;;;;;;;32.66;59.24;100538.50;5059455;28;65955;-36
2022/10/18 06:37:00;;;;;;;13.82;12.50;;;;;;;32.64;59.39;100535.22;5059345;28;70171;-36
2022/10/18 06:39:30;;;;;;;17.23;12.77;;;;;;;32.56;59.36;100514.69;5056798;28;66559;-37
2022/10/18 06:42:00;;;;;;;18.48;13.57;;;;;;;32.74;59.02;100532.72;5056227;28;69426;-36
2022/10/18 06:44:35;;;;;;;14.23;12.82;;;;;;;32.67;59.30;100516.53;5057953;28;66769;-36
2022/10/18 06:47:07;;;;;;;14.00;12.48;;;;;;;32.71;58.98;100525.03;5052516;28;70064;-37
2022/10/18 06:49:37;;;;;;;13.65;12.35;;;;;;;32.81;59.05;100514.34;5059124;28;66275;-37
2022/10/18 06:52:08;;;;;;;14.52;13.02;;;;;;;32.86;59.17;100524.50;5056320;28;69933;-36
2022/10/18 06:54:39;;;;;;;13.65;12.55;;;;;;;32.89;58.96;100519.41;5056005;28;65175;-38
2022/10/18 06:57:09;;;;;;;15.63;13.60;;;;;;;32.92;59.00;100516.19;5055760;28;69505;-36
2022/10/18 06:59:40;;;;;;;14.60;13.20;;;;;;;32.97;59.05;100503.78;5039615;28;65446;-37
2022/10/18 07:02:19;;;;;;;17.63;12.18;;;;;;;32.97;58.82;100503.78;5057385;27;70614;-37
2022/10/18 07:04:49;;;;;;;13.52;12.13;;;;;;;33.05;59.05;100511.59;5056423;28;66102;-36
2022/10/18 07:07:20;;;;;;;13.75;12.65;;;;;;;33.04;58.89;100493.63;5061190;28;69860;-37
2022/10/18 07:09:51;;;;;;;13.38;12.30;;;;;;;33.11;58.73;100494.31;5063269;28;65839;-37
2022/10/18 07:12:21;;;;;;;12.95;11.85;;;;;;;33.15;58.56;100490.00;5064209;28;69455;-36
2022/10/18 07:14:51;;;;;;;13.25;12.05;;;;;;;33.19;58.48;100495.81;5064259;28;66383;-37
2022/10/18 07:17:22;;;;;;;13.07;12.00;;;;;;;33.21;58.75;100494.47;5064747;28;70318;-41
2022/10/18 07:19:53;;;;;;;14.45;12.18;;;;;;;33.24;58.59;100480.41;5063420;28;66357;-35
2022/10/18 07:22:24;;;;;;;13.40;11.95;;;;;;;33.27;58.13;100477.19;5059530;28;70092;-36
2022/10/18 07:24:58;;;;;;;15.35;11.50;;;;;;;33.31;58.33;100472.88;5063181;28;65671;-37
2022/10/18 07:27:29;;;;;;;12.20;10.95;;;;;;;33.33;58.59;100459.88;5063327;28;69374;-36
2022/10/18 07:30:00;;;;;;;12.20;11.10;;;;;;;33.34;58.27;100461.53;5050791;28;66855;-36
2022/10/18 07:32:31;;;;;;;12.50;11.30;;;;;;;33.33;58.15;100454.44;5075123;28;69821;-36
2022/10/18 07:35:02;;;;;;;15.52;12.10;;;;;;;33.22;58.06;100424.63;5061998;28;66666;-36
2022/10/18 07:37:32;;;;;;;12.93;10.95;;;;;;;33.43;57.99;100447.50;5061886;28;70898;-37
2022/10/18 07:40:04;;;;;;;12.30;11.13;;;;;;;33.46;57.96;100447.88;5063750;28;66153;-35
2022/10/18 07:42:35;;;;;;;15.27;11.05;;;;;;;33.48;57.83;100451.13;5061244;28;70273;-37
2022/10/18 07:45:07;;;;;;;12.70;11.50;;;;;;;33.51;57.82;100447.09;5061715;28;66300;-35
2022/10/18 07:47:37;;;;;;;12.15;10.90;;;;;;;33.49;57.66;100439.22;5051371;28;69612;-35
2022/10/18 07:50:09;;;;;;;;;;;;;;;33.27;58.00;100443.75;5061222;28;66157;-35
2022/10/18 07:52:39;;;;;;;13.05;10.48;;;;;;;33.55;57.56;100451.00;5063136;28;69948;-35
2022/10/18 07:55:13;;;;;;;11.73;10.65;;;;;;;33.57;57.43;100449.69;5062363;28;66269;-35
2022/10/18 07:57:43;;;;;;;12.10;11.07;;;;;;;33.57;57.50;100446.13;5061268;28;69771;-35
2022/10/18 08:00:14;;;;;;;16.60;10.80;;;;;;;33.61;57.46;100439.13;5060314;28;66470;-36
2022/10/18 08:02:44;;;;;;;11.57;10.43;;;;;;;33.64;57.32;100443.25;5060260;28;69585;-35
2022/10/18 08:05:15;;;;;;;10.38;9.48;;;;;;;33.66;57.38;100449.28;5059558;28;66299;-36
2022/10/18 08:07:46;;;;;;;23.23;10.68;;;;;;;33.57;57.19;100432.53;5061461;28;69242;-36
2022/10/18 08:10:16;;;;;;;15.23;10.18;;;;;;;33.69;57.11;100455.03;5056430;28;66501;-36
2022/10/18 08:12:48;;;;;;;12.33;9.93;;;;;;;33.59;57.06;100442.09;5056956;28;70410;-36
2022/10/18 08:15:20;;;;;;;13.40;9.65;;;;;;;33.72;57.25;100456.44;5061967;28;66179;-36
2022/10/18 08:17:51;;;;;;;11.10;10.13;;;;;;;33.74;56.93;100455.09;5060822;28;71015;-36
2022/10/18 08:20:22;;;;;;;14.30;10.45;;;;;;;33.75;57.01;100456.75;5061382;28;66624;-37
2022/10/18 08:22:59;;;;;;;10.93;9.80;;;;;;;33.66;57.01;100431.06;5056003;28;69642;-36
2022/10/18 08:25:31;;;;;;;9.90;9.27;;;;;;;33.80;56.95;100456.81;5059444;28;67654;-35
2022/10/18 08:28:01;;;;;;;10.65;9.05;;;;;;;33.80;56.85;100454.09;5062137;28;69558;-36
2022/10/18 08:30:32;;;;;;;11.00;8.90;;;;;;;33.84;56.97;100448.16;5062272;28;65798;-36
2022/10/18 08:33:03;;;;;;;16.20;9.50;;;;;;;33.69;56.74;100425.09;5060569;28;70827;-37
2022/10/18 08:35:33;;;;;;;9.55;8.65;;;;;;;33.86;56.85;100446.00;5056079;28;66025;-36
2022/10/18 08:38:04;;;;;;;10.30;9.18;;;;;;;33.86;56.67;100451.47;5057827;28;69846;-36
2022/10/18 08:40:35;;;;;;;11.03;9.97;;;;;;;33.86;56.73;100457.72;5055297;28;66379;-36
2022/10/18 08:43:29;;;;;;;11.05;9.32;;;;;;;33.71;56.40;100444.72;5058449;28;69837;-36
2022/10/18 08:46:00;;;;;;;12.95;9.70;;;;;;;33.72;56.90;100427.31;5051051;28;65662;-36
2022/10/18 08:48:53;;;;;;;12.55;9.23;;;;;;;33.33;56.62;100378.31;5052244;28;69933;-36
2022/10/18 08:51:37;;;;;;;9.88;9.18;;;;;;;33.56;56.49;100398.25;5051679;28;66566;-35
2022/10/18 08:54:34;;;;;;;10.68;8.80;;;;;;;33.85;56.63;100461.53;5053433;28;69782;-36
2022/10/18 08:57:13;;;;;;;10.18;9.30;;;;;;;33.94;56.61;100480.97;5054195;28;64896;-36
2022/10/18 08:59:44;;;;;;;11.85;9.00;;;;;;;33.97;56.73;100458.69;5054477;28;69918;-36
2022/10/18 09:02:27;;;;;;;10.03;9.20;;;;;;;33.94;56.65;100456.47;5053173;28;65658;-36
2022/10/18 09:05:24;;;;;;;10.13;8.43;;;;;;;33.88;56.54;100454.72;5041048;28;70106;-35
2022/10/18 09:08:18;;;;;;;10.07;8.80;;;;;;;33.93;56.58;100452.91;5060377;28;65735;-36
2022/10/18 09:11:20;;;;;;;10.15;9.15;;;;;;;33.50;56.38;100386.47;5051370;28;69502;-36
2022/10/18 09:13:56;;;;;;;9.43;8.18;;;;;;;33.95;56.68;100456.19;5050965;28;66690;-36
2022/10/18 09:16:49;;;;;;;8.82;8.13;;;;;;;33.04;56.59;100325.16;5061445;28;70308;-35
2022/10/18 09:20:08;;;;;;;11.07;9.48;;;;;;;33.46;59.03;100463.31;5055105;28;66467;-35
2022/10/18 09:22:41;;;;;;;11.20;9.65;;;;;;;33.31;59.72;100491.09;5054544;28;69268;-36
2022/10/18 09:25:17;;;;;;;11.27;9.73;;;;;;;33.21;60.55;100494.47;5070130;28;65189;-36
2022/10/18 09:27:54;;;;;;;13.45;10.38;;;;;;;33.12;61.21;100498.66;5070799;27;69647;-35
2022/10/18 09:30:35;;;;;;;11.48;10.57;;;;;;;33.09;61.58;100507.28;5072356;28;66367;-36
2022/10/18 09:33:13;;;;;;;;;;;;;;;32.77;62.51;100525.97;5062027;28;43090;-35
2022/10/18 09:35:55;;;;;;;12.25;10.38;;;;;;;32.48;62.35;100453.47;5072549;28;66676;-37
2022/10/18 09:38:35;;;;;;;11.95;10.88;;;;;;;32.46;62.28;100455.59;5064504;28;70801;-37
2022/10/18 09:41:22;;;;;;;16.00;10.73;;;;;;;32.83;61.40;100476.91;5067788;27;66146;-36
2022/10/18 09:44:23;;;;;;;14.20;10.70;;;;;;;33.38;61.09;100544.25;5063264;28;69645;-38
2022/10/18 09:47:07;;;;;;;17.33;11.50;;;;;;;32.69;60.83;100415.81;5060352;28;66190;-36
2022/10/18 09:49:51;;;;;;;20.85;10.70;;;;;;;33.53;60.18;100562.75;5057895;28;69316;-37
2022/10/18 09:52:45;;;;;;;11.40;10.38;;;;;;;33.53;60.87;100572.81;5059664;28;66427;-37
2022/10/18 09:55:24;;;;;;;11.63;10.27;;;;;;;33.55;60.39;100559.78;5058232;28;70044;-37
2022/10/18 09:58:00;;;;;;;11.98;9.98;;;;;;;33.33;60.05;100530.56;5040352;28;65570;-37
2022/10/18 10:00:51;;;;;;;13.25;10.18;;;;;;;33.58;60.83;100581.06;5059567;28;70203;-34
2022/10/18 10:03:24;;;;;;;13.73;10.73;;;;;;;33.66;60.28;100571.66;5059916;27;66748;-38
2022/10/18 10:06:10;;;;;;;19.73;10.50;;;;;;;33.66;61.01;100583.38;5058716;28;69889;-37
2022/10/18 10:08:43;;;;;;;26.70;10.15;;;;;;;33.57;60.79;100568.50;5059392;28;66540;-37
2022/10/18 10:11:39;;;;;;;17.52;10.35;;;;;;;33.54;61.35;100569.84;5052021;28;70480;-37
2022/10/18 10:14:12;;;;;;;17.95;10.00;;;;;;;33.66;60.58;100582.56;5051302;28;65633;-37
2022/10/18 10:17:04;;;;;;;19.98;10.77;;;;;;;33.50;61.17;100574.09;5058254;28;69768;-37
2022/10/18 10:19:35;;;;;;;16.50;10.15;;;;;;;33.66;60.20;100588.81;5059310;28;66770;-37
2022/10/18 10:22:11;;;;;;;27.65;11.88;;;;;;;33.26;60.10;100529.06;5041285;28;70167;-36
2022/10/18 10:24:53;;;;;;;31.42;11.15;;;;;;;33.58;61.06;100598.19;5045457;28;65580;-35
2022/10/18 10:27:44;;;;;;;26.55;10.18;;;;;;;33.22;60.71;100539.63;5052885;28;69334;-37
2022/10/18 10:30:26;;;;;;;20.10;9.98;;;;;;;33.57;60.73;100606.59;5050152;28;66457;-38
2022/10/18 10:32:57;;;;;;;24.95;9.77;;;;;;;33.62;60.34;100612.13;5054514;28;70382;-38
2022/10/18 10:35:45;;;;;;;21.63;10.13;;;;;;;33.61;60.78;100618.63;5047082;28;65505;-36
2022/10/18 10:38:27;;;;;;;29.88;9.52;;;;;;;33.59;60.96;100620.78;5046724;28;69984;-37
2022/10/18 10:40:58;;;;;;;19.58;9.55;;;;;;;33.59;60.59;100615.31;5044700;28;65357;-37
2022/10/18 10:43:35;;;;;;;21.35;9.45;;;;;;;33.55;61.26;100625.06;5043995;28;69372;-37
2022/10/18 10:46:12;;;;;;;16.55;9.18;;;;;;;33.13;61.07;100554.69;5053042;28;66012;-37
2022/10/18 10:48:59;;;;;;;13.30;9.10;;;;;;;33.28;61.79;100603.88;5052025;28;69576;-37
2022/10/18 10:52:01;;;;;;;20.98;10.98;;;;;;;33.47;61.70;100628.16;5054610;28;66209;-37
2022/10/18 10:54:44;;;;;;;15.35;9.50;;;;;;;33.50;61.19;100639.34;5054035;28;69989;-37
2022/10/18 10:57:25;;;;;;;19.52;9.82;;;;;;;32.92;62.10;100556.13;5061024;28;64896;-37
2022/10/18 10:59:58;;;;;;;24.90;10.55;;;;;;;33.08;61.52;100587.19;5056978;28;69938;-37
2022/10/18 11:02:32;;;;;;;18.67;9.95;;;;;;;33.47;61.63;100655.34;5059584;28;65922;-37
2022/10/18 11:05:45;;;;;;;15.63;9.50;;;;;;;33.29;62.29;100665.34;5061237;28;70480;-37
2022/10/18 11:08:21;;;;;;;21.25;9.35;;;;;;;33.32;61.67;100653.97;5038830;28;66446;-37
2022/10/18 11:11:00;;;;;;;17.23;8.98;;;;;;;33.40;61.56;100670.97;5048410;28;69877;-37
2022/10/18 11:13:42;;;;;;;11.65;8.82;;;;;;;32.90;61.77;100591.72;5061099;28;65505;-37
2022/10/18 11:16:53;;;;;;;8.63;7.82;;;;;;;32.81;63.66;100679.25;5056176;28;69131;-37
2022/10/18 11:19:54;;;;;;;16.08;11.10;;;;;;;32.76;64.19;100682.66;5069757;28;65671;-35
2022/10/18 11:22:27;;;;;;;21.42;12.75;;;;;;;32.33;64.38;100610.53;5064433;28;70128;-37
2022/10/18 11:24:58;;;;;;;21.90;14.20;;;;;;;32.64;64.59;100660.94;5065708;28;66370;-36
2022/10/18 11:28:14;;;;;;;27.58;14.90;;;;;;;32.52;65.46;100672.91;5065460;28;69490;-36
2022/10/18 11:30:45;;;;;;;36.33;17.15;;;;;;;32.56;65.70;100668.63;5065622;28;66066;-37
2022/10/18 11:33:37;;;;;;;38.45;16.10;;;;;;;32.46;65.66;100680.94;5056147;28;69818;-37
2022/10/18 11:36:29;;;;;;;24.25;15.48;;;;;;;32.12;65.63;100616.53;5054157;28;66434;-37
2022/10/18 11:39:33;;;;;;;23.38;15.35;;;;;;;32.53;65.67;100685.41;5053200;28;69245;-37
2022/10/18 11:42:29;;;;;;;29.00;14.60;;;;;;;32.56;65.30;100676.78;5056902;28;65535;-37
2022/10/18 11:45:05;;;;;;;19.67;14.52;;;;;;;32.45;66.53;100671.06;5050064;28;70578;-37
2022/10/18 11:47:40;;;;;;;23.92;14.05;;;;;;;32.36;66.77;100655.38;5051467;28;65848;-36
2022/10/18 11:50:32;;;;;;;20.02;12.63;;;;;;;32.36;66.71;100667.06;5057749;28;70105;-36
2022/10/18 11:53:22;;;;;;;19.10;12.65;;;;;;;31.93;66.84;100619.38;5055886;28;66684;-37